createdAt,value
2022-09-10T00:02:21.423Z,1.30
2022-09-10T00:05:10.021Z,1.20
2022-09-10T00:07:56.760Z,2.73
2022-09-10T00:10:45.638Z,3.70
2022-09-10T00:13:34.066Z,2.53
2022-09-10T00:16:22.111Z,3.30
2022-09-10T00:19:08.883Z,1.63
2022-09-10T00:21:55.132Z,2.60
2022-09-10T00:24:41.511Z,4.87
2022-09-10T00:27:28.203Z,3.17
2022-09-10T00:30:16.327Z,1.43
2022-09-10T00:33:02.907Z,1.80
2022-09-10T00:35:49.968Z,1.40
2022-09-10T00:38:36.597Z,3.97
2022-09-10T00:41:25.409Z,3.20
2022-09-10T00:44:45.272Z,1.20
2022-09-10T00:47:37.044Z,1.80
2022-09-10T00:50:26.679Z,2.47
2022-09-10T00:53:16.424Z,1.50
2022-09-10T00:56:05.796Z,1.60
2022-09-10T00:58:52.756Z,1.53
2022-09-10T01:01:40.461Z,1.63
2022-09-10T01:04:28.963Z,2.67
2022-09-10T01:07:16.792Z,2.73
2022-09-10T01:10:06.411Z,2.47
2022-09-10T01:13:16.022Z,5.93
2022-09-10T01:16:12.091Z,1.63
2022-09-10T01:19:07.397Z,4.03
2022-09-10T01:22:05.064Z,2.97
2022-09-10T01:24:57.415Z,1.87
2022-09-10T01:27:48.112Z,7.90
2022-09-10T01:30:38.165Z,1.40
2022-09-10T01:33:31.265Z,1.43
2022-09-10T01:36:23.831Z,2.73
2022-09-10T01:39:10.544Z,4.00
2022-09-10T01:41:57.015Z,3.83
2022-09-10T01:44:47.176Z,2.57
2022-09-10T01:47:50.472Z,3.87
2022-09-10T01:50:47.027Z,2.77
2022-09-10T01:53:49.387Z,3.87
2022-09-10T01:56:44.741Z,3.20
2022-09-10T01:59:39.048Z,3.67
2022-09-10T02:02:29.863Z,1.93
2022-09-10T02:05:19.341Z,2.10
2022-09-10T02:08:10.960Z,2.63
2022-09-10T02:11:00.766Z,4.87
2022-09-10T02:13:47.220Z,4.93
2022-09-10T02:16:37.821Z,3.10
2022-09-10T02:19:26.569Z,1.60
2022-09-10T02:22:15.439Z,4.60
2022-09-10T02:25:01.741Z,4.10
2022-09-10T02:27:49.058Z,2.00
2022-09-10T02:30:35.448Z,2.80
2022-09-10T02:33:21.892Z,3.33
2022-09-10T02:36:09.691Z,3.07
2022-09-10T02:38:57.620Z,1.87
2022-09-10T02:41:44.278Z,3.60
2022-09-10T02:44:31.134Z,3.53
2022-09-10T02:47:18.307Z,3.53
2022-09-10T02:50:05.616Z,4.27
2022-09-10T02:52:53.864Z,4.90
2022-09-10T02:55:40.628Z,1.70
2022-09-10T02:58:27.345Z,4.07
2022-09-10T03:01:15.807Z,3.37
2022-09-10T03:04:02.587Z,3.70
2022-09-10T03:06:49.551Z,5.00
2022-09-10T03:09:37.219Z,2.67
2022-09-10T03:12:24.017Z,5.20
2022-09-10T03:15:11.944Z,5.87
2022-09-10T03:17:58.316Z,5.23
2022-09-10T03:20:44.602Z,4.33
2022-09-10T03:23:30.962Z,4.23
2022-09-10T03:26:20.293Z,6.07
2022-09-10T03:29:06.799Z,3.03
2022-09-10T03:31:53.376Z,4.23
2022-09-10T03:34:40.379Z,6.10
2022-09-10T03:37:26.851Z,4.07
2022-09-10T03:40:13.635Z,4.00
2022-09-10T03:43:02.919Z,3.40
2022-09-10T03:45:50.263Z,3.73
2022-09-10T03:48:39.527Z,3.80
2022-09-10T03:51:27.498Z,7.47
2022-09-10T03:54:15.125Z,4.10
2022-09-10T03:57:03.400Z,3.07
2022-09-10T03:59:52.689Z,5.10
2022-09-10T04:02:39.127Z,5.03
2022-09-10T04:05:27.593Z,5.10
2022-09-10T04:08:15.102Z,5.53
2022-09-10T04:11:03.570Z,9.67
2022-09-10T04:13:50.240Z,4.33
2022-09-10T04:16:37.997Z,5.53
2022-09-10T04:19:24.652Z,4.30
2022-09-10T04:22:11.076Z,5.07
2022-09-10T04:24:57.484Z,6.53
2022-09-10T04:27:44.340Z,4.83
2022-09-10T04:30:30.901Z,3.73
2022-09-10T04:33:18.999Z,5.80
2022-09-10T04:36:06.360Z,3.20
2022-09-10T04:38:52.761Z,5.70
2022-09-10T04:41:39.136Z,4.20
2022-09-10T04:44:25.662Z,5.53
2022-09-10T04:47:12.324Z,4.67
2022-09-10T04:50:00.378Z,5.57
2022-09-10T04:52:46.871Z,4.00
2022-09-10T04:55:33.517Z,4.93
2022-09-10T04:58:20.036Z,4.37
2022-09-10T05:01:06.646Z,8.53
2022-09-10T05:03:53.195Z,3.47
2022-09-10T05:06:42.092Z,4.63
2022-09-10T05:09:31.246Z,3.97
2022-09-10T05:12:19.343Z,5.37
2022-09-10T05:15:07.367Z,5.33
2022-09-10T05:17:53.954Z,4.00
2022-09-10T05:20:40.577Z,4.23
2022-09-10T05:23:28.291Z,4.83
2022-09-10T05:26:14.814Z,8.17
2022-09-10T05:29:01.313Z,5.80
2022-09-10T05:31:47.780Z,3.53
2022-09-10T05:34:34.551Z,4.77
2022-09-10T05:37:21.136Z,3.67
2022-09-10T05:40:14.306Z,3.90
2022-09-10T05:43:00.783Z,4.10
2022-09-10T05:45:47.460Z,5.30
2022-09-10T05:48:36.722Z,2.90
2022-09-10T05:51:27.904Z,8.10
2022-09-10T05:54:14.497Z,4.63
2022-09-10T05:57:02.184Z,9.60
2022-09-10T05:59:48.742Z,2.83
2022-09-10T06:02:35.422Z,3.97
2022-09-10T06:05:23.100Z,2.93
2022-09-10T06:08:09.812Z,3.40
2022-09-10T06:11:00.584Z,6.13
2022-09-10T06:13:49.014Z,3.30
2022-09-10T06:16:35.387Z,10.90
2022-09-10T06:19:21.655Z,3.77
2022-09-10T06:22:11.116Z,7.07
2022-09-10T06:24:57.484Z,4.70
2022-09-10T06:27:44.467Z,4.20
2022-09-10T06:30:32.411Z,4.10
2022-09-10T06:33:19.632Z,4.70
2022-09-10T06:36:06.448Z,7.20
2022-09-10T06:38:55.656Z,3.53
2022-09-10T06:41:45.833Z,5.03
2022-09-10T06:44:34.610Z,2.27
2022-09-10T06:50:28.766Z,5.03
2022-09-10T06:53:15.085Z,2.53
2022-09-10T06:56:02.297Z,2.77
2022-09-10T06:58:48.653Z,4.50
2022-09-10T07:01:34.892Z,4.03
2022-09-10T07:04:23.203Z,3.43
2022-09-10T07:07:10.169Z,4.40
2022-09-10T07:09:56.335Z,4.63
2022-09-10T07:12:42.781Z,2.33
2022-09-10T07:15:29.402Z,3.27
2022-09-10T07:18:16.232Z,3.93
2022-09-10T07:21:11.467Z,4.10
2022-09-10T07:23:58.433Z,2.63
2022-09-10T07:26:45.842Z,2.80
2022-09-10T07:29:32.201Z,3.87
2022-09-10T07:32:18.638Z,3.60
2022-09-10T07:35:07.519Z,4.43
2022-09-10T07:37:55.453Z,3.00
2022-09-10T07:40:43.709Z,2.83
2022-09-10T07:43:30.753Z,4.10
2022-09-10T07:46:20.451Z,3.23
2022-09-10T07:49:07.672Z,4.87
2022-09-10T07:51:59.681Z,2.93
2022-09-10T07:54:48.126Z,6.00
2022-09-10T07:57:37.879Z,2.60
2022-09-10T08:00:24.312Z,5.17
2022-09-10T08:03:12.528Z,2.87
2022-09-10T08:06:02.048Z,1.70
2022-09-10T08:08:48.660Z,2.00
2022-09-10T08:11:36.650Z,2.43
2022-09-10T08:14:23.345Z,3.10
2022-09-10T08:17:09.749Z,2.37
2022-09-10T08:19:56.231Z,2.90
2022-09-10T08:22:42.640Z,2.23
2022-09-10T08:25:28.954Z,3.00
2022-09-10T08:28:17.695Z,2.77
2022-09-10T08:31:07.802Z,2.70
2022-09-10T08:33:56.805Z,3.97
2022-09-10T08:36:43.620Z,2.07
2022-09-10T08:39:31.043Z,1.73
2022-09-10T08:42:22.703Z,2.03
2022-09-10T08:45:15.796Z,1.70
2022-09-10T08:48:07.037Z,2.17
2022-09-10T08:50:58.096Z,4.03
2022-09-10T08:53:52.456Z,2.47
2022-09-10T08:56:41.416Z,4.90
2022-09-10T08:59:34.403Z,3.63
2022-09-10T09:02:47.640Z,3.10
2022-09-10T09:05:45.757Z,3.97
2022-09-10T09:08:36.539Z,2.50
2022-09-10T09:11:33.210Z,4.43
2022-09-10T09:14:39.572Z,3.40
2022-09-10T09:17:49.144Z,2.23
2022-09-10T09:20:44.803Z,1.63
2022-09-10T09:24:02.737Z,4.97
2022-09-10T09:26:49.788Z,2.00
2022-09-10T09:29:43.638Z,1.83
2022-09-10T09:32:34.383Z,3.63
2022-09-10T09:35:30.624Z,5.40
2022-09-10T09:38:22.269Z,3.10
2022-09-10T09:41:17.173Z,3.07
2022-09-10T09:44:14.800Z,3.30
2022-09-10T09:47:02.131Z,6.80
2022-09-10T09:49:48.671Z,4.20
2022-09-10T09:52:38.559Z,3.50
2022-09-10T09:55:32.935Z,4.87
2022-09-10T09:58:34.584Z,5.80
2022-09-10T10:01:24.087Z,6.37
2022-09-10T10:04:22.479Z,6.83
2022-09-10T10:07:09.055Z,6.93
2022-09-10T10:09:56.861Z,6.37
2022-09-10T10:12:49.533Z,6.67
2022-09-10T10:15:38.818Z,4.90
2022-09-10T10:18:32.732Z,4.73
2022-09-10T10:21:22.284Z,6.43
2022-09-10T10:24:33.012Z,5.30
2022-09-10T10:27:26.368Z,5.90
2022-09-10T10:30:25.059Z,4.93
2022-09-10T10:33:19.603Z,7.07
2022-09-10T10:36:15.607Z,5.60
2022-09-10T10:39:06.436Z,6.90
2022-09-10T10:42:05.476Z,4.20
2022-09-10T10:45:08.231Z,5.43
2022-09-10T10:47:57.158Z,6.30
2022-09-10T10:50:54.237Z,4.63
2022-09-10T10:53:56.792Z,6.67
2022-09-10T10:56:47.899Z,8.60
2022-09-10T10:59:49.583Z,5.77
2022-09-10T11:02:46.068Z,5.40
2022-09-10T11:05:37.578Z,5.30
2022-09-10T11:08:30.834Z,4.40
2022-09-10T11:11:20.449Z,5.13
2022-09-10T11:14:20.049Z,5.50
2022-09-10T11:17:12.299Z,6.03
2022-09-10T11:20:27.871Z,8.73
2022-09-10T11:23:25.327Z,6.07
2022-09-10T11:26:16.424Z,5.83
2022-09-10T11:29:14.645Z,5.60
2022-09-10T11:32:06.262Z,7.20
2022-09-10T11:35:12.022Z,5.17
2022-09-10T11:38:07.652Z,5.43
2022-09-10T11:41:07.665Z,6.90
2022-09-10T11:44:03.179Z,6.57
2022-09-10T11:46:58.983Z,7.60
2022-09-10T11:49:53.456Z,6.00
2022-09-10T11:52:42.162Z,5.50
2022-09-10T11:55:38.848Z,6.90
2022-09-10T11:58:35.087Z,8.37
2022-09-10T12:01:42.935Z,5.50
2022-09-10T12:04:47.634Z,5.97
2022-09-10T12:07:49.111Z,6.20
2022-09-10T12:10:44.813Z,5.87
2022-09-10T12:13:33.233Z,7.43
2022-09-10T12:16:35.783Z,6.23
2022-09-10T12:19:27.480Z,6.30
2022-09-10T12:22:20.953Z,8.17
2022-09-10T12:25:28.304Z,6.93
2022-09-10T12:28:58.585Z,6.27
2022-09-10T12:32:24.568Z,8.97
2022-09-10T12:35:46.765Z,5.90
2022-09-10T12:38:54.814Z,8.07
2022-09-10T12:42:01.054Z,7.87
2022-09-10T12:44:48.482Z,7.17
2022-09-10T12:47:50.308Z,6.70
2022-09-10T12:50:46.237Z,5.87
2022-09-10T12:54:09.235Z,7.77
2022-09-10T12:57:18.836Z,5.87
2022-09-10T13:00:21.982Z,5.90
2022-09-10T13:03:17.118Z,7.37
2022-09-10T13:06:07.120Z,6.10
2022-09-10T13:08:55.368Z,6.70
2022-09-10T13:11:49.043Z,6.00
2022-09-10T13:14:46.627Z,7.40
2022-09-10T13:18:01.567Z,5.10
2022-09-10T13:20:48.229Z,5.07
2022-09-10T13:23:49.344Z,7.20
2022-09-10T13:26:50.206Z,7.07
2022-09-10T13:29:40.894Z,7.17
2022-09-10T13:32:30.549Z,5.93
2022-09-10T13:35:55.679Z,6.93
2022-09-10T13:39:15.891Z,6.57
2022-09-10T13:42:27.028Z,8.00
2022-09-10T13:45:22.850Z,4.30
2022-09-10T13:48:14.975Z,6.23
2022-09-10T13:51:16.348Z,4.33
2022-09-10T13:54:09.144Z,4.80
2022-09-10T13:56:57.184Z,5.27
2022-09-10T13:59:44.763Z,4.57
2022-09-10T14:02:47.431Z,4.03
2022-09-10T14:05:39.276Z,6.97
2022-09-10T14:08:29.391Z,4.00
2022-09-10T14:11:20.371Z,7.10
2022-09-10T14:14:09.628Z,5.23
2022-09-10T14:17:01.487Z,4.20
2022-09-10T14:19:55.534Z,4.23
2022-09-10T14:22:42.390Z,3.37
2022-09-10T14:25:32.240Z,4.97
2022-09-10T14:28:25.967Z,4.37
2022-09-10T14:31:28.068Z,3.80
2022-09-10T14:34:33.148Z,4.43
2022-09-10T14:37:33.654Z,3.10
2022-09-10T14:40:22.601Z,3.20
2022-09-10T14:43:16.198Z,2.90
2022-09-10T14:46:03.500Z,3.13
2022-09-10T14:49:04.378Z,3.60
2022-09-10T14:51:50.745Z,3.03
2022-09-10T14:54:38.576Z,6.17
2022-09-10T14:57:25.205Z,2.03
2022-09-10T15:00:15.499Z,2.13
2022-09-10T15:03:02.852Z,2.60
2022-09-10T15:05:49.613Z,1.90
2022-09-10T15:08:36.000Z,2.10
2022-09-10T15:11:27.103Z,2.60
2022-09-10T15:14:16.586Z,2.50
2022-09-10T15:17:03.495Z,2.73
2022-09-10T15:19:49.927Z,2.10
2022-09-10T15:22:36.367Z,3.73
2022-09-10T15:25:37.942Z,2.70
2022-09-10T15:28:26.374Z,3.33
2022-09-10T15:31:13.172Z,2.33
2022-09-10T15:34:00.101Z,2.03
2022-09-10T15:36:48.133Z,2.00
2022-09-10T15:39:38.096Z,3.00
2022-09-10T15:42:24.686Z,3.33
2022-09-10T15:45:13.154Z,1.83
2022-09-10T15:47:59.594Z,2.30
2022-09-10T15:50:45.979Z,4.07
2022-09-10T15:53:33.908Z,3.43
2022-09-10T15:56:21.641Z,4.00
2022-09-10T15:59:08.657Z,4.03
2022-09-10T16:01:56.794Z,3.70
2022-09-10T16:04:44.927Z,4.13
2022-09-10T16:07:31.785Z,6.23
2022-09-10T16:10:18.404Z,3.57
2022-09-10T16:13:04.715Z,5.57
2022-09-10T16:16:02.647Z,3.60
2022-09-10T16:18:51.880Z,4.10
2022-09-10T16:21:39.347Z,5.07
2022-09-10T16:24:25.826Z,4.73
2022-09-10T16:27:12.204Z,4.70
2022-09-10T16:29:58.861Z,5.33
2022-09-10T16:32:46.290Z,4.47
2022-09-10T16:35:35.777Z,4.60
2022-09-10T16:38:22.081Z,4.63
2022-09-10T16:41:09.411Z,6.67
2022-09-10T16:43:58.583Z,5.13
2022-09-10T16:46:46.304Z,5.57
2022-09-10T16:49:32.965Z,6.97
2022-09-10T16:52:20.860Z,6.87
2022-09-10T16:55:08.243Z,7.77
2022-09-10T16:57:54.706Z,6.30
2022-09-10T17:00:44.473Z,4.63
2022-09-10T17:03:31.490Z,4.30
2022-09-10T17:06:19.903Z,5.07
2022-09-10T17:09:07.584Z,5.73
2022-09-10T17:11:54.386Z,5.30
2022-09-10T17:14:40.705Z,5.37
2022-09-10T17:17:27.305Z,4.97
2022-09-10T17:20:14.692Z,5.47
2022-09-10T17:23:01.410Z,5.17
2022-09-10T17:25:49.147Z,5.40
2022-09-10T17:28:36.219Z,6.03
2022-09-10T17:31:23.202Z,6.67
2022-09-10T17:34:13.167Z,5.60
2022-09-10T17:36:59.812Z,5.00
2022-09-10T17:39:47.715Z,5.00
2022-09-10T17:42:36.059Z,5.83
2022-09-10T17:45:22.787Z,6.87
2022-09-10T17:48:10.125Z,5.90
2022-09-10T17:50:56.775Z,5.70
2022-09-10T17:53:43.427Z,5.83
2022-09-10T17:56:29.768Z,6.77
2022-09-10T17:59:17.648Z,8.33
2022-09-10T18:02:04.247Z,6.03
2022-09-10T18:04:51.219Z,6.10
2022-09-10T18:07:37.676Z,6.27
2022-09-10T18:10:24.068Z,6.03
2022-09-10T18:13:10.910Z,8.83
2022-09-10T18:15:58.779Z,6.10
2022-09-10T18:18:47.553Z,6.30
2022-09-10T18:21:35.320Z,6.10
2022-09-10T18:24:24.127Z,5.87
2022-09-10T18:27:10.913Z,6.90
2022-09-10T18:29:57.802Z,7.60
2022-09-10T18:32:45.605Z,9.57
2022-09-10T18:35:32.187Z,6.90
2022-09-10T18:38:18.587Z,5.70
2022-09-10T18:41:05.445Z,6.17
2022-09-10T18:43:53.360Z,6.07
2022-09-10T18:46:40.739Z,5.70
2022-09-10T18:49:29.232Z,6.77
2022-09-10T18:52:16.580Z,6.30
2022-09-10T18:55:02.895Z,7.13
2022-09-10T18:57:49.296Z,8.23
2022-09-10T19:00:35.587Z,7.17
2022-09-10T19:03:22.039Z,9.07
2022-09-10T19:06:12.601Z,9.80
2022-09-10T19:09:01.394Z,7.53
2022-09-10T19:11:50.576Z,6.50
2022-09-10T19:14:36.918Z,8.30
2022-09-10T19:17:23.920Z,7.20
2022-09-10T19:20:11.029Z,7.83
2022-09-10T19:22:59.624Z,7.90
2022-09-10T19:25:54.681Z,7.97
2022-09-10T19:28:42.149Z,7.37
2022-09-10T19:31:30.507Z,7.00
2022-09-10T19:34:19.265Z,7.13
2022-09-10T19:37:07.207Z,7.20
2022-09-10T19:39:57.441Z,7.63
2022-09-10T19:42:44.039Z,7.70
2022-09-10T19:45:31.603Z,7.90
2022-09-10T19:48:19.911Z,8.83
2022-09-10T19:51:09.926Z,7.23
2022-09-10T19:53:56.786Z,9.47
2022-09-10T19:56:44.558Z,8.47
2022-09-10T19:59:31.485Z,8.30
2022-09-10T20:02:18.131Z,8.60
2022-09-10T20:05:05.608Z,9.50
2022-09-10T20:07:52.069Z,8.27
2022-09-10T20:10:38.743Z,11.03
2022-09-10T20:13:27.105Z,8.60
2022-09-10T20:16:14.860Z,9.87
2022-09-10T20:19:04.015Z,8.73
2022-09-10T20:21:50.952Z,8.30
2022-09-10T20:24:37.787Z,7.63
2022-09-10T20:27:24.886Z,9.37
2022-09-10T20:30:13.138Z,7.40
2022-09-10T20:33:01.368Z,7.13
2022-09-10T20:35:48.120Z,6.67
2022-09-10T20:38:34.844Z,7.40
2022-09-10T20:41:22.464Z,7.13
2022-09-10T20:44:09.615Z,7.13
2022-09-10T20:46:57.771Z,6.30
2022-09-10T20:49:44.019Z,7.93
2022-09-10T20:52:30.397Z,7.97
2022-09-10T20:55:17.348Z,7.93
2022-09-10T20:58:03.938Z,7.20
2022-09-10T21:00:50.212Z,9.57
2022-09-10T21:03:38.333Z,8.33
2022-09-10T21:06:27.171Z,7.17
2022-09-10T21:09:13.764Z,10.07
2022-09-10T21:12:00.537Z,8.07
2022-09-10T21:14:46.991Z,9.23
2022-09-10T21:17:33.231Z,9.40
2022-09-10T21:20:22.406Z,11.10
2022-09-10T21:23:09.119Z,8.60
2022-09-10T21:25:55.365Z,8.27
2022-09-10T21:28:43.793Z,9.40
2022-09-10T21:31:31.945Z,8.67
2022-09-10T21:34:19.334Z,8.57
2022-09-10T21:37:07.193Z,8.50
2022-09-10T21:39:54.390Z,10.43
2022-09-10T21:42:41.206Z,10.67
2022-09-10T21:45:28.002Z,8.67
2022-09-10T21:48:14.440Z,10.93
2022-09-10T21:51:01.235Z,10.20
2022-09-10T21:53:50.015Z,9.20
2022-09-10T21:56:36.334Z,11.13
2022-09-10T21:59:25.365Z,12.57
2022-09-10T22:02:11.799Z,13.50
2022-09-10T22:04:58.703Z,10.63
2022-09-10T22:07:46.300Z,8.50
2022-09-10T22:10:34.711Z,13.57
2022-09-10T22:13:22.216Z,12.47
2022-09-10T22:16:09.524Z,11.47
2022-09-10T22:18:57.300Z,9.93
2022-09-10T22:21:43.963Z,9.43
2022-09-10T22:24:30.262Z,11.87
2022-09-10T22:27:18.076Z,13.23
2022-09-10T22:30:05.316Z,8.70
2022-09-10T22:32:51.605Z,10.23
2022-09-10T22:35:39.115Z,10.57
2022-09-10T22:38:25.540Z,9.40
2022-09-10T22:41:14.226Z,10.63
2022-09-10T22:44:02.530Z,12.77
2022-09-10T22:46:49.072Z,16.17
2022-09-10T22:49:37.248Z,12.13
2022-09-10T22:52:24.079Z,12.50
2022-09-10T22:55:11.300Z,14.70
2022-09-10T22:57:59.035Z,13.40
2022-09-10T23:00:46.984Z,11.70
2022-09-10T23:03:33.611Z,12.87
2022-09-10T23:06:21.562Z,12.37
2022-09-10T23:09:11.584Z,12.27
2022-09-10T23:11:57.900Z,14.20
2022-09-10T23:14:44.787Z,14.40
2022-09-10T23:17:32.505Z,14.03
2022-09-10T23:20:19.241Z,15.67
2022-09-10T23:23:05.716Z,13.40
2022-09-10T23:25:52.101Z,13.43
2022-09-10T23:28:38.779Z,11.23
2022-09-10T23:31:27.650Z,16.20
2022-09-10T23:34:17.336Z,14.77
2022-09-10T23:37:03.724Z,14.07
2022-09-10T23:39:50.662Z,13.80
2022-09-10T23:42:36.881Z,18.97
2022-09-10T23:45:23.128Z,20.70
2022-09-10T23:48:09.610Z,21.30
2022-09-10T23:50:57.529Z,18.20
2022-09-10T23:53:45.144Z,21.10
2022-09-10T23:56:32.109Z,16.80
2022-09-10T23:59:19.511Z,21.30
